Time;durP1;ratioP1;P1;durP2;ratioP2;P2;SDS_P1;SDS_P2;PMS_P1;PMS_P2;Temp;Humidity;BMP_temperature;BMP_pressure;BME280_temperature;BME280_humidity;BME280_pressure;Samples;Min_cycle;Max_cycle;Signal;HPM_P1;HPM_P2
2023/04/07 00:01:46;;;;;;;32.85;24.08;;;;;;;;;;5014595;28;20461;-83
2023/04/07 00:04:13;;;;;;;30.58;23.63;;;;;;;;;;5049935;28;20029;-83
2023/04/07 00:06:39;;;;;;;32.22;24.88;;;;;;;;;;5064642;28;20033;-82
2023/04/07 00:09:05;;;;;;;32.40;23.52;;;;;;;;;;5039767;28;20416;-83
2023/04/07 00:11:31;;;;;;;34.72;25.17;;;;;;;;;;5033077;28;20021;-83
2023/04/07 00:13:57;;;;;;;33.53;25.55;;;;;;;;;;5013708;28;20041;-83
2023/04/07 00:16:23;;;;;;;35.00;26.20;;;;;;;;;;5038950;28;20059;-82
2023/04/07 00:18:49;;;;;;;31.20;24.60;;;;;;;;;;5030521;28;20067;-81
2023/04/07 00:21:15;;;;;;;34.83;25.77;;;;;;;;;;5039983;28;20359;-82
2023/04/07 00:23:41;;;;;;;32.25;24.70;;;;;;;;;;5040126;28;20037;-82
2023/04/07 00:26:08;;;;;;;32.92;24.40;;;;;;;;;;5038561;28;20040;-82
2023/04/07 00:28:34;;;;;;;31.40;23.35;;;;;;;;;;5017776;28;20061;-81
2023/04/07 00:31:00;;;;;;;32.25;24.08;;;;;;;;;;5043872;28;20066;-81
2023/04/07 00:33:26;;;;;;;30.80;24.27;;;;;;;;;;5032353;28;20064;-81
2023/04/07 00:35:53;;;;;;;34.58;24.70;;;;;;;;;;5040546;28;20369;-81
2023/04/07 00:38:19;;;;;;;38.08;26.70;;;;;;;;;;5017274;28;20040;-81
2023/04/07 00:40:45;;;;;;;30.55;23.15;;;;;;;;;;5054975;28;20078;-81
2023/04/07 00:43:11;;;;;;;34.65;26.38;;;;;;;;;;5037245;28;20029;-82
2023/04/07 00:45:37;;;;;;;34.80;24.90;;;;;;;;;;5039223;28;20033;-81
2023/04/07 00:48:04;;;;;;;32.10;24.90;;;;;;;;;;5033166;28;20048;-81
2023/04/07 00:50:30;;;;;;;32.95;25.25;;;;;;;;;;5036262;28;20056;-81
2023/04/07 00:52:56;;;;;;;31.88;24.83;;;;;;;;;;5053100;28;20442;-81
2023/04/07 00:55:23;;;;;;;33.28;25.08;;;;;;;;;;5030025;28;20037;-81
2023/04/07 00:57:49;;;;;;;36.50;26.38;;;;;;;;;;5049688;28;20036;-81
2023/04/07 01:00:15;;;;;;;33.80;24.85;;;;;;;;;;5031381;28;20489;-82
2023/04/07 01:02:43;;;;;;;34.97;25.20;;;;;;;;;;5040629;28;20029;-80
2023/04/07 01:05:09;;;;;;;31.88;24.98;;;;;;;;;;5050220;28;20561;-81
2023/04/07 01:07:41;;;;;;;32.05;25.33;;;;;;;;;;5028747;28;20033;-81
2023/04/07 01:10:09;;;;;;;35.40;25.50;;;;;;;;;;5028419;28;20029;-82
2023/04/07 01:12:35;;;;;;;34.92;26.13;;;;;;;;;;5054264;28;20123;-81
2023/04/07 01:15:05;;;;;;;35.47;24.77;;;;;;;;;;5048950;28;20565;-81
2023/04/07 01:17:32;;;;;;;36.60;25.95;;;;;;;;;;5039532;28;20036;-80
2023/04/07 01:20:07;;;;;;;38.47;28.13;;;;;;;;;;5016999;28;20044;-80
2023/04/07 01:22:39;;;;;;;39.13;26.73;;;;;;;;;;5015302;28;20042;-81
2023/04/07 01:25:17;;;;;;;40.05;27.88;;;;;;;;;;5033799;28;20017;-81
2023/04/07 01:27:54;;;;;;;36.33;26.77;;;;;;;;;;5029669;28;20040;-80
2023/04/07 01:30:20;;;;;;;38.28;28.10;;;;;;;;;;5045651;28;20485;-81
2023/04/07 01:32:50;;;;;;;38.00;27.15;;;;;;;;;;5031969;28;20028;-81
2023/04/07 01:35:17;;;;;;;33.90;25.35;;;;;;;;;;5032247;28;20029;-81
2023/04/07 01:37:47;;;;;;;37.95;26.65;;;;;;;;;;5045177;28;20056;-80
2023/04/07 01:40:13;;;;;;;35.85;26.08;;;;;;;;;;5031964;28;20029;-82
2023/04/07 01:42:40;;;;;;;37.42;26.05;;;;;;;;;;5012466;28;20026;-80
2023/04/07 01:45:07;;;;;;;44.05;28.73;;;;;;;;;;5021978;28;20037;-81
2023/04/07 01:47:36;;;;;;;40.70;26.35;;;;;;;;;;5033722;28;20029;-81
2023/04/07 01:50:05;;;;;;;34.95;25.33;;;;;;;;;;5051744;28;20051;-82
2023/04/07 01:52:35;;;;;;;34.63;26.02;;;;;;;;;;5037260;28;20078;-82
2023/04/07 01:55:01;;;;;;;34.97;25.70;;;;;;;;;;5066823;28;20025;-81
2023/04/07 01:57:28;;;;;;;35.25;24.90;;;;;;;;;;5053743;28;20564;-82
2023/04/07 01:59:54;;;;;;;34.75;26.55;;;;;;;;;;5057753;28;20235;-81
2023/04/07 02:02:20;;;;;;;39.85;25.70;;;;;;;;;;5028928;28;20068;-81
2023/04/07 02:04:56;;;;;;;35.42;26.30;;;;;;;;;;5042669;28;20426;-82
2023/04/07 02:07:37;;;;;;;34.92;26.60;;;;;;;;;;5029516;28;20097;-83
2023/04/07 02:10:06;;;;;;;36.47;27.30;;;;;;;;;;5028183;28;20533;-83
2023/04/07 02:12:33;;;;;;;36.13;25.52;;;;;;;;;;5045787;28;20033;-81
2023/04/07 02:15:00;;;;;;;32.08;24.38;;;;;;;;;;5034122;28;20021;-82
2023/04/07 02:17:28;;;;;;;33.30;25.02;;;;;;;;;;5018998;28;20025;-82
2023/04/07 02:19:58;;;;;;;35.88;26.63;;;;;;;;;;5035657;28;20412;-81
2023/04/07 02:22:24;;;;;;;36.22;25.83;;;;;;;;;;5034518;28;20026;-82
2023/04/07 02:24:53;;;;;;;35.45;27.23;;;;;;;;;;5012842;28;20029;-82
2023/04/07 02:27:19;;;;;;;39.10;27.88;;;;;;;;;;5024630;28;20042;-81
2023/04/07 02:29:45;;;;;;;40.05;27.02;;;;;;;;;;5011818;28;20033;-81
2023/04/07 02:32:11;;;;;;;37.42;27.13;;;;;;;;;;5031526;28;20021;-81
2023/04/07 02:34:37;;;;;;;34.53;26.27;;;;;;;;;;5047130;28;20036;-80
2023/04/07 02:37:04;;;;;;;37.55;27.02;;;;;;;;;;5031087;28;20037;-80
2023/04/07 02:39:30;;;;;;;37.83;27.20;;;;;;;;;;5032818;28;20115;-81
2023/04/07 02:41:56;;;;;;;36.80;26.52;;;;;;;;;;5048300;28;20018;-81
2023/04/07 02:44:22;;;;;;;36.80;26.08;;;;;;;;;;5011598;28;20517;-79
2023/04/07 02:46:48;;;;;;;37.97;26.23;;;;;;;;;;5013321;28;20033;-80
2023/04/07 02:49:14;;;;;;;44.10;29.73;;;;;;;;;;5047500;28;20087;-83
2023/04/07 02:51:40;;;;;;;44.00;31.42;;;;;;;;;;5032551;28;20541;-81
2023/04/07 02:54:06;;;;;;;50.40;31.98;;;;;;;;;;5028616;28;20398;-81
2023/04/07 02:56:32;;;;;;;39.20;27.02;;;;;;;;;;5029097;28;20036;-82
2023/04/07 02:58:58;;;;;;;37.95;27.40;;;;;;;;;;5024651;28;20022;-80
2023/04/07 03:01:24;;;;;;;38.38;27.35;;;;;;;;;;5024003;28;20044;-80
2023/04/07 03:03:50;;;;;;;38.28;27.52;;;;;;;;;;5026193;28;20026;-80
2023/04/07 03:06:16;;;;;;;40.00;27.25;;;;;;;;;;5010616;28;20184;-81
2023/04/07 03:08:42;;;;;;;39.15;28.55;;;;;;;;;;5023205;28;20558;-81
2023/04/07 03:11:09;;;;;;;34.95;27.05;;;;;;;;;;5031264;28;20492;-82
2023/04/07 03:13:35;;;;;;;34.53;26.27;;;;;;;;;;5033029;28;20029;-80
2023/04/07 03:16:01;;;;;;;40.25;27.73;;;;;;;;;;5033309;28;20037;-80
2023/04/07 03:18:27;;;;;;;37.83;27.02;;;;;;;;;;5033054;28;20488;-83
2023/04/07 03:20:55;;;;;;;40.35;29.10;;;;;;;;;;5036189;28;20383;-81
2023/04/07 03:23:22;;;;;;;36.17;26.08;;;;;;;;;;5034668;28;20048;-81
2023/04/07 03:25:49;;;;;;;35.17;26.73;;;;;;;;;;5031688;28;20132;-80
2023/04/07 03:28:15;;;;;;;37.33;27.13;;;;;;;;;;5016095;28;20037;-81
2023/04/07 03:30:41;;;;;;;40.33;27.38;;;;;;;;;;5027195;28;20029;-80
2023/04/07 03:33:07;;;;;;;37.67;26.50;;;;;;;;;;5012200;28;20049;-81
2023/04/07 03:35:34;;;;;;;37.50;26.00;;;;;;;;;;5044762;28;20048;-82
2023/04/07 03:38:00;;;;;;;34.35;26.15;;;;;;;;;;5034186;28;20116;-80
2023/04/07 03:40:26;;;;;;;36.10;26.10;;;;;;;;;;5013356;28;20029;-81
2023/04/07 03:42:52;;;;;;;31.30;25.27;;;;;;;;;;5019770;28;20392;-80
2023/04/07 03:45:18;;;;;;;32.15;25.25;;;;;;;;;;5027943;28;20415;-81
2023/04/07 03:47:44;;;;;;;34.58;27.58;;;;;;;;;;5014936;28;20633;-81
2023/04/07 03:50:10;;;;;;;37.53;27.63;;;;;;;;;;5031507;28;20444;-82
2023/04/07 03:52:36;;;;;;;38.17;27.65;;;;;;;;;;5056843;28;20039;-81
2023/04/07 03:55:02;;;;;;;39.53;27.80;;;;;;;;;;5028685;28;20026;-81
2023/04/07 03:57:28;;;;;;;36.95;27.80;;;;;;;;;;5018072;28;20120;-80
2023/04/07 03:59:55;;;;;;;39.70;27.98;;;;;;;;;;5041756;28;20028;-80
2023/04/07 04:02:21;;;;;;;39.50;28.38;;;;;;;;;;5035749;28;20021;-80
2023/04/07 04:04:47;;;;;;;39.33;28.48;;;;;;;;;;5039102;28;20033;-81
2023/04/07 04:07:13;;;;;;;38.95;27.98;;;;;;;;;;5035591;28;20037;-82
2023/04/07 04:09:39;;;;;;;42.33;29.23;;;;;;;;;;5038335;28;20028;-82
2023/04/07 04:12:05;;;;;;;40.08;28.50;;;;;;;;;;5061839;28;20074;-82
2023/04/07 04:14:31;;;;;;;43.38;29.77;;;;;;;;;;5032756;28;20056;-81
2023/04/07 04:16:57;;;;;;;38.97;28.60;;;;;;;;;;5050572;28;20034;-81
2023/04/07 04:19:23;;;;;;;43.42;28.05;;;;;;;;;;5032284;28;20029;-82
2023/04/07 04:21:50;;;;;;;37.45;28.08;;;;;;;;;;5043397;28;20078;-81
2023/04/07 04:24:16;;;;;;;41.22;28.83;;;;;;;;;;5031010;28;20106;-82
2023/04/07 04:26:42;;;;;;;39.97;28.35;;;;;;;;;;5017674;28;20045;-81
2023/04/07 04:29:08;;;;;;;36.92;27.20;;;;;;;;;;5035238;28;20033;-82
2023/04/07 04:31:34;;;;;;;36.03;27.83;;;;;;;;;;5012009;28;20548;-81
2023/04/07 04:34:00;;;;;;;41.60;29.00;;;;;;;;;;5031644;28;20167;-81
2023/04/07 04:36:26;;;;;;;38.97;29.35;;;;;;;;;;5033612;28;20032;-81
2023/04/07 04:38:52;;;;;;;35.55;26.33;;;;;;;;;;5035676;28;20029;-81
2023/04/07 04:41:18;;;;;;;39.75;26.88;;;;;;;;;;5043126;28;20035;-81
2023/04/07 04:43:44;;;;;;;44.30;28.80;;;;;;;;;;5033034;28;20037;-82
2023/04/07 04:46:10;;;;;;;37.33;27.83;;;;;;;;;;5045429;28;20036;-82
2023/04/07 04:48:37;;;;;;;36.30;27.23;;;;;;;;;;5035938;28;20461;-80
2023/04/07 04:51:03;;;;;;;37.35;28.85;;;;;;;;;;5026315;28;20021;-81
2023/04/07 04:53:29;;;;;;;43.35;29.38;;;;;;;;;;5017911;28;20079;-81
2023/04/07 04:55:55;;;;;;;42.15;28.65;;;;;;;;;;5030366;28;20024;-81
2023/04/07 04:58:21;;;;;;;40.17;27.27;;;;;;;;;;5028330;28;20028;-80
2023/04/07 05:00:47;;;;;;;37.53;27.17;;;;;;;;;;5023379;28;20032;-80
2023/04/07 05:03:15;;;;;;;41.00;27.88;;;;;;;;;;5001608;28;20079;-80
2023/04/07 05:05:41;;;;;;;36.60;27.40;;;;;;;;;;5023253;28;20482;-80
2023/04/07 05:08:08;;;;;;;42.70;28.35;;;;;;;;;;5020423;28;20033;-80
2023/04/07 05:10:38;;;;;;;39.47;27.70;;;;;;;;;;5025030;28;20025;-79
2023/04/07 05:13:04;;;;;;;38.67;26.80;;;;;;;;;;5005419;28;20440;-77
2023/04/07 05:15:30;;;;;;;42.42;28.75;;;;;;;;;;5024403;28;20436;-78
2023/04/07 05:17:56;;;;;;;47.05;27.67;;;;;;;;;;5019691;28;20334;-79
2023/04/07 05:20:22;;;;;;;37.80;26.45;;;;;;;;;;5027452;28;20025;-79
2023/04/07 05:22:48;;;;;;;35.83;25.75;;;;;;;;;;5031827;28;20021;-77
2023/04/07 05:25:14;;;;;;;40.45;27.50;;;;;;;;;;5026935;28;20063;-78
2023/04/07 05:27:40;;;;;;;37.05;25.88;;;;;;;;;;5026585;28;20477;-77
2023/04/07 05:30:08;;;;;;;34.85;25.60;;;;;;;;;;5025758;28;20040;-79
2023/04/07 05:32:34;;;;;;;30.67;22.40;;;;;;;;;;5034919;28;20120;-78
2023/04/07 05:35:00;;;;;;;28.92;22.25;;;;;;;;;;5028466;28;20358;-81
2023/04/07 05:37:27;;;;;;;27.42;20.98;;;;;;;;;;5032160;28;20079;-77
2023/04/07 05:39:53;;;;;;;27.92;20.20;;;;;;;;;;5030745;28;20048;-79
2023/04/07 05:42:19;;;;;;;27.27;21.08;;;;;;;;;;5028705;28;20055;-78
2023/04/07 05:44:47;;;;;;;29.05;20.50;;;;;;;;;;5026022;28;20032;-81
2023/04/07 05:47:14;;;;;;;26.80;19.83;;;;;;;;;;5007968;28;20051;-78
2023/04/07 05:49:44;;;;;;;26.60;20.92;;;;;;;;;;5026652;28;20053;-82
2023/04/07 05:52:11;;;;;;;26.38;20.52;;;;;;;;;;5025426;28;20025;-81
2023/04/07 05:54:39;;;;;;;28.98;21.25;;;;;;;;;;5034487;28;20033;-80
2023/04/07 05:57:06;;;;;;;26.50;20.35;;;;;;;;;;5015635;28;20037;-80
2023/04/07 05:59:32;;;;;;;26.40;19.92;;;;;;;;;;5032294;28;20071;-79
2023/04/07 06:01:58;;;;;;;24.65;19.55;;;;;;;;;;5030951;28;20025;-79
2023/04/07 06:04:24;;;;;;;25.23;19.35;;;;;;;;;;5060097;28;20087;-80
2023/04/07 06:06:53;;;;;;;26.27;19.58;;;;;;;;;;5044849;28;20033;-81
2023/04/07 06:09:20;;;;;;;22.33;17.77;;;;;;;;;;5028480;28;20032;-82
2023/04/07 06:11:46;;;;;;;21.63;18.35;;;;;;;;;;5050879;28;20029;-78
2023/04/07 06:14:13;;;;;;;22.50;18.00;;;;;;;;;;5033648;28;20053;-84
2023/04/07 06:16:39;;;;;;;23.58;17.85;;;;;;;;;;5026247;28;20056;-85
2023/04/07 06:19:06;;;;;;;22.42;17.17;;;;;;;;;;5031950;28;20065;-85
2023/04/07 06:21:32;;;;;;;20.15;15.65;;;;;;;;;;5028417;28;20028;-81
2023/04/07 06:23:58;;;;;;;19.95;16.17;;;;;;;;;;5027722;28;20045;-81
2023/04/07 06:26:27;;;;;;;19.60;15.85;;;;;;;;;;5041537;28;20039;-80
2023/04/07 06:28:54;;;;;;;19.48;15.95;;;;;;;;;;5025355;28;20025;-78
2023/04/07 06:31:20;;;;;;;21.60;17.30;;;;;;;;;;5032293;28;20110;-78
2023/04/07 06:33:46;;;;;;;22.95;17.38;;;;;;;;;;5014985;28;20029;-78
2023/04/07 06:36:12;;;;;;;21.00;16.60;;;;;;;;;;5034272;28;20103;-78
2023/04/07 06:38:38;;;;;;;21.02;16.20;;;;;;;;;;5046677;28;20036;-79
2023/04/07 06:41:05;;;;;;;20.58;15.85;;;;;;;;;;5032295;28;20121;-82
2023/04/07 06:43:31;;;;;;;26.73;18.95;;;;;;;;;;5027834;28;20488;-79
2023/04/07 06:45:57;;;;;;;21.42;16.42;;;;;;;;;;5025380;28;20397;-82
2023/04/07 06:48:23;;;;;;;20.42;16.30;;;;;;;;;;5044626;28;20079;-81
2023/04/07 06:50:49;;;;;;;22.48;16.00;;;;;;;;;;5026954;28;20139;-84
2023/04/07 06:53:15;;;;;;;16.70;14.32;;;;;;;;;;5047550;28;20032;-79
2023/04/07 06:55:41;;;;;;;19.83;15.57;;;;;;;;;;5063672;28;20481;-80
2023/04/07 06:58:07;;;;;;;23.05;16.50;;;;;;;;;;5053366;28;20021;-84
2023/04/07 07:00:35;;;;;;;18.73;14.50;;;;;;;;;;5029965;28;20025;-82
2023/04/07 07:03:01;;;;;;;19.45;15.43;;;;;;;;;;5028009;28;20029;-82
2023/04/07 07:05:27;;;;;;;18.98;14.93;;;;;;;;;;5032232;28;20025;-78
2023/04/07 07:07:53;;;;;;;21.17;15.68;;;;;;;;;;5057573;28;20044;-84
2023/04/07 07:10:21;;;;;;;19.95;15.13;;;;;;;;;;5063774;28;20032;-82
2023/04/07 07:12:47;;;;;;;19.35;15.80;;;;;;;;;;5032167;28;20629;-79
2023/04/07 07:15:13;;;;;;;16.77;14.27;;;;;;;;;;5044184;28;20386;-83
2023/04/07 07:17:39;;;;;;;17.80;15.05;;;;;;;;;;5030050;28;20355;-80
2023/04/07 07:20:06;;;;;;;18.85;14.45;;;;;;;;;;5041333;28;20029;-81
2023/04/07 07:22:32;;;;;;;17.85;14.32;;;;;;;;;;5014274;28;20534;-79
2023/04/07 07:24:58;;;;;;;19.27;15.27;;;;;;;;;;5025278;28;20103;-83
2023/04/07 07:27:24;;;;;;;18.05;14.57;;;;;;;;;;5036270;28;20089;-80
2023/04/07 07:29:50;;;;;;;19.25;14.18;;;;;;;;;;5004204;28;20029;-82
2023/04/07 07:32:16;;;;;;;16.52;14.02;;;;;;;;;;5047483;28;20048;-81
2023/04/07 07:34:42;;;;;;;17.52;13.77;;;;;;;;;;5056703;28;20025;-81
2023/04/07 07:37:29;;;;;;;16.92;13.57;;;;;;;;;;5035011;28;20032;-84
2023/04/07 07:40:27;;;;;;;16.80;13.35;;;;;;;;;;4983451;28;20051;-82
2023/04/07 07:43:17;;;;;;;;;;;;;;;;;;;;;
2023/04/07 07:46:00;;;;;;;14.60;12.57;;;;;;;;;;4994119;28;20124;-82
2023/04/07 07:51:30;;;;;;;19.98;13.48;;;;;;;;;;4996282;28;20485;-83
2023/04/07 07:54:25;;;;;;;16.40;14.07;;;;;;;;;;4979902;28;20042;-81
2023/04/07 07:56:52;;;;;;;16.45;14.10;;;;;;;;;;4943784;28;20112;-81
2023/04/07 07:59:18;;;;;;;19.00;14.85;;;;;;;;;;4935328;29;21549;-82
2023/04/07 08:01:45;;;;;;;19.92;15.55;;;;;;;;;;4934047;29;20521;-83
2023/04/07 08:04:11;;;;;;;21.83;16.50;;;;;;;;;;4917904;29;20489;-86
2023/04/07 08:06:37;;;;;;;21.92;17.73;;;;;;;;;;4914032;29;20489;-83
2023/04/07 08:09:05;;;;;;;22.05;16.95;;;;;;;;;;4952911;28;20373;-87
2023/04/07 08:11:31;;;;;;;21.63;17.27;;;;;;;;;;5006955;28;20497;-85
2023/04/07 08:13:57;;;;;;;18.42;16.23;;;;;;;;;;5011669;28;20079;-85
2023/04/07 08:16:25;;;;;;;22.52;17.80;;;;;;;;;;5013366;28;20027;-84
2023/04/07 08:18:51;;;;;;;20.77;16.77;;;;;;;;;;5010705;28;20079;-84
2023/04/07 08:21:18;;;;;;;23.17;17.73;;;;;;;;;;5014046;28;20037;-84
2023/04/07 08:23:45;;;;;;;20.50;17.48;;;;;;;;;;5014053;28;20124;-83
2023/04/07 08:26:11;;;;;;;22.83;17.95;;;;;;;;;;5003863;28;20042;-85
2023/04/07 08:28:38;;;;;;;21.58;18.40;;;;;;;;;;5014458;28;20025;-84
2023/04/07 08:31:04;;;;;;;21.05;17.67;;;;;;;;;;5061493;28;20056;-84
2023/04/07 08:33:30;;;;;;;20.67;17.92;;;;;;;;;;5042908;28;20124;-83
2023/04/07 08:35:56;;;;;;;24.05;18.02;;;;;;;;;;5063170;28;20048;-83
2023/04/07 08:38:22;;;;;;;24.05;18.40;;;;;;;;;;5078205;28;20396;-83
2023/04/07 08:40:53;;;;;;;22.73;18.67;;;;;;;;;;5060326;28;20530;-85
2023/04/07 08:43:19;;;;;;;23.45;18.27;;;;;;;;;;5068290;28;20052;-82
2023/04/07 08:45:46;;;;;;;22.23;17.17;;;;;;;;;;5056532;28;20033;-83
2023/04/07 08:48:22;;;;;;;20.42;17.63;;;;;;;;;;5037674;28;20029;-85
2023/04/07 08:50:51;;;;;;;24.60;19.77;;;;;;;;;;5058784;28;20060;-82
2023/04/07 08:53:18;;;;;;;21.10;18.15;;;;;;;;;;5036941;28;20445;-83
2023/04/07 08:55:44;;;;;;;20.13;17.35;;;;;;;;;;5055332;28;20469;-83
2023/04/07 08:58:11;;;;;;;23.02;17.77;;;;;;;;;;5052262;28;20031;-85
2023/04/07 09:00:40;;;;;;;21.60;18.20;;;;;;;;;;5051107;28;20074;-84
2023/04/07 09:03:07;;;;;;;22.73;17.42;;;;;;;;;;5046015;28;20029;-85
2023/04/07 09:05:34;;;;;;;20.67;16.67;;;;;;;;;;5057686;28;20546;-85
2023/04/07 09:08:01;;;;;;;19.10;16.15;;;;;;;;;;5061394;28;20024;-87
2023/04/07 09:10:27;;;;;;;24.25;17.52;;;;;;;;;;5053664;28;20094;-85
2023/04/07 09:12:53;;;;;;;18.38;14.77;;;;;;;;;;5054367;28;20078;-85
2023/04/07 09:15:20;;;;;;;18.70;15.73;;;;;;;;;;5050292;28;20032;-85
2023/04/07 09:17:47;;;;;;;19.90;15.73;;;;;;;;;;5041269;28;20392;-84
2023/04/07 09:20:13;;;;;;;17.85;14.18;;;;;;;;;;5040938;28;20056;-85
2023/04/07 09:22:49;;;;;;;17.25;14.02;;;;;;;;;;5044139;28;20028;-83
2023/04/07 09:25:16;;;;;;;17.60;15.10;;;;;;;;;;5061864;28;20036;-84
2023/04/07 09:28:01;;;;;;;16.58;14.10;;;;;;;;;;5063836;28;20496;-83
2023/04/07 09:30:28;;;;;;;16.60;13.27;;;;;;;;;;5058202;28;20122;-83
2023/04/07 09:32:54;;;;;;;15.20;13.60;;;;;;;;;;5044056;28;20028;-82
2023/04/07 09:35:22;;;;;;;14.10;12.13;;;;;;;;;;5051725;28;20037;-85
2023/04/07 09:38:15;;;;;;;14.70;13.15;;;;;;;;;;5056567;28;20032;-85
2023/04/07 09:40:43;;;;;;;13.50;11.30;;;;;;;;;;5057028;28;20043;-78
2023/04/07 09:43:15;;;;;;;14.07;11.05;;;;;;;;;;5053659;28;20030;-80
2023/04/07 09:45:41;;;;;;;12.65;10.55;;;;;;;;;;5053217;28;20089;-80
2023/04/07 09:48:26;;;;;;;11.80;10.38;;;;;;;;;;5036674;28;20144;-78
2023/04/07 09:51:04;;;;;;;11.10;9.35;;;;;;;;;;5044714;28;20028;-82
2023/04/07 09:53:50;;;;;;;12.10;8.90;;;;;;;;;;5051279;28;20109;-80
2023/04/07 09:56:17;;;;;;;10.88;9.38;;;;;;;;;;5057209;28;20040;-83
2023/04/07 09:58:44;;;;;;;14.65;8.82;;;;;;;;;;5043634;28;20033;-82
2023/04/07 10:01:19;;;;;;;9.30;8.27;;;;;;;;;;5057462;28;20089;-82
2023/04/07 10:04:01;;;;;;;9.07;7.82;;;;;;;;;;5048734;28;20556;-79
2023/04/07 10:06:29;;;;;;;11.68;8.75;;;;;;;;;;5041777;28;20041;-80
2023/04/07 10:12:24;;;;;;;11.68;9.38;;;;;;;;;;5057037;28;20044;-79
2023/04/07 10:14:51;;;;;;;9.18;8.20;;;;;;;;;;5046690;28;20156;-77
2023/04/07 10:17:19;;;;;;;10.60;8.13;;;;;;;;;;5053971;28;20035;-82
2023/04/07 10:19:46;;;;;;;29.23;17.17;;;;;;;;;;5062301;28;20044;-79
2023/04/07 10:22:12;;;;;;;10.35;8.88;;;;;;;;;;5059047;28;20051;-83
2023/04/07 10:25:35;;;;;;;9.00;8.05;;;11.10;99.90;;;;;;5052105;28;20083;-81
2023/04/07 10:28:16;;;;;;;12.40;8.57;;;;;;;;;;5048594;28;20033;-80
2023/04/07 10:30:43;;;;;;;13.35;8.27;;;;;;;;;;5057439;28;20115;-83
2023/04/07 10:33:10;;;;;;;9.40;8.40;;;;;;;;;;5062328;28;20042;-85
2023/04/07 10:36:37;;;;;;;11.73;8.95;;;11.00;99.90;;;;;;5044926;28;20024;-82
2023/04/07 10:39:19;;;;;;;9.60;8.57;;;;;;;;;;5033636;28;20082;-80
2023/04/07 10:42:03;;;;;;;10.00;8.40;;;;;;;;;;5071307;28;20037;-81
2023/04/07 10:44:52;;;;;;;11.30;8.57;;;;;;;;;;5029630;28;20583;-81
2023/04/07 10:47:33;;;;;;;10.00;8.38;;;;;;;;;;5039033;28;20123;-83
2023/04/07 10:57:12;;;;;;;;;;;;;;;;;;;;;
2023/04/07 10:59:40;;;;;;;9.20;8.30;;;;;;;;;;5041172;28;20036;-84
2023/04/07 11:02:16;;;;;;;8.55;7.72;;;;;;;;;;5040431;28;20027;-84
2023/04/07 11:04:43;;;;;;;8.20;7.32;;;;;;;;;;5051677;28;20033;-84
2023/04/07 11:07:10;;;;;;;8.23;7.32;;;;;;;;;;5052716;28;20070;-84
2023/04/07 11:09:36;;;;;;;9.32;7.53;;;;;;;;;;5031996;28;20158;-84
2023/04/07 11:12:05;;;;;;;9.27;7.65;;;;;;;;;;5033930;28;20465;-84
2023/04/07 11:14:32;;;;;;;9.20;8.05;;;;;;;;;;5048258;28;20025;-84
2023/04/07 11:17:00;;;;;;;7.90;7.10;;;;;;;;;;5059583;28;20067;-84
2023/04/07 11:19:27;;;;;;;8.48;7.22;;;;;;;;;;5051242;28;20017;-83
2023/04/07 11:22:15;;;;;;;8.50;7.07;;;;;;;;;;5050809;28;20396;-83
2023/04/07 11:24:42;;;;;;;7.70;6.70;;;;;;;;;;5038499;28;20020;-83
2023/04/07 11:40:33;;;;;;;6.72;5.43;;;;;;;;;;4901016;29;20132;-83
2023/04/07 11:47:03;;;;;;;5.32;4.82;;;;;;;;;;4911445;29;20074;-84
2023/04/07 11:49:34;;;;;;;5.50;4.90;;;;;;;;;;4933125;29;20042;-84
2023/04/07 11:52:41;;;;;;;;;;;;;;;;;;;;;
2023/04/07 11:55:16;;;;;;;5.72;5.13;;;;;;;;;;4888819;29;20451;-84
2023/04/07 11:57:42;;;;;;;5.88;5.28;;;;;;;;;;4850419;29;20045;-82
2023/04/07 12:00:15;;;;;;;4.53;4.13;;;;;;;;;;4890198;28;20033;-85
2023/04/07 12:02:43;;;;;;;;;;;11.70;99.90;;;;;;4987025;28;20076;-84
2023/04/07 12:05:15;;;;;;;5.70;5.10;;;;;;;;;;5009054;28;19913;-84
2023/04/07 12:07:55;;;;;;;4.88;4.38;;;;;;;;;;5010589;28;20112;-83
2023/04/07 12:10:24;;;;;;;5.32;4.50;;;;;;;;;;4994718;28;20474;-83
2023/04/07 12:12:51;;;;;;;5.55;4.43;;;;;;;;;;5006975;28;20042;-85
2023/04/07 12:15:17;;;;;;;5.78;5.10;;;;;;;;;;5009133;28;20417;-82
2023/04/07 12:17:47;;;;;;;8.88;5.22;;;;;;;;;;4992426;28;20573;-82
2023/04/07 12:20:13;;;;;;;5.93;4.88;;;;;;;;;;4993529;28;20033;-83
2023/04/07 12:22:40;;;;;;;5.35;4.85;;;;;;;;;;5009013;28;20040;-82
2023/04/07 12:25:06;;;;;;;6.45;4.78;;;;;;;;;;5035362;28;20024;-85
2023/04/07 12:27:32;;;;;;;6.05;5.38;;;;;;;;;;5033572;28;20037;-82
2023/04/07 12:29:58;;;;;;;5.90;5.10;;;;;;;;;;5034166;28;20501;-81
2023/04/07 12:32:25;;;;;;;6.18;5.00;;;;;;;;;;5050356;28;20457;-81
2023/04/07 12:34:53;;;;;;;7.32;5.45;;;;;;;;;;5033329;28;20036;-81
2023/04/07 12:37:19;;;;;;;5.80;5.20;;;;;;;;;;5032410;28;20261;-81
2023/04/07 12:39:45;;;;;;;5.15;4.35;;;;;;;;;;5025623;28;20214;-81
2023/04/07 12:42:11;;;;;;;5.80;5.05;;;;;;;;;;5053114;28;20027;-82
2023/04/07 12:44:38;;;;;;;7.40;5.32;;;;;;;;;;5025898;28;20029;-81
2023/04/07 12:47:04;;;;;;;5.95;5.35;;;;;;;;;;5043431;28;20037;-82
2023/04/07 12:49:30;;;;;;;5.95;5.28;;;;;;;;;;5018793;28;20505;-82
2023/04/07 12:51:57;;;;;;;5.25;4.75;;;;;;;;;;5019744;28;20370;-82
2023/04/07 12:54:23;;;;;;;6.28;4.38;;;;;;;;;;5018574;28;20026;-81
2023/04/07 12:56:50;;;;;;;5.78;5.10;;;;;;;;;;5033018;28;20056;-82
2023/04/07 12:59:16;;;;;;;5.40;4.90;;;;;;;;;;5046914;28;20032;-81
2023/04/07 13:01:42;;;;;;;5.57;4.90;;;;;;;;;;5044316;28;20024;-83
2023/04/07 13:04:10;;;;;;;5.97;4.40;;;;;;;;;;5047801;28;20040;-83
2023/04/07 13:06:37;;;;;;;5.40;4.85;;;;;;;;;;5038066;28;20838;-83
2023/04/07 13:09:03;;;;;;;5.28;4.78;;;;;;;;;;5055697;28;20032;-84
2023/04/07 13:11:29;;;;;;;4.65;4.22;;;;;;;;;;5043613;28;20021;-82
2023/04/07 13:13:55;;;;;;;5.20;4.70;;;;;;;;;;5045158;28;20399;-82
2023/04/07 13:16:21;;;;;;;7.82;5.00;;;;;;;;;;5053259;28;20093;-80
2023/04/07 13:18:47;;;;;;;4.93;4.32;;;;;;;;;;5049518;28;20127;-83
2023/04/07 13:21:15;;;;;;;6.05;5.28;;;;;;;;;;5054206;28;20127;-84
2023/04/07 13:23:41;;;;;;;9.43;4.68;;;;;;;;;;5059159;28;20032;-83
2023/04/07 13:26:08;;;;;;;28.95;19.40;;;;;;;;;;5039207;28;21659;-82
2023/04/07 13:28:34;;;;;;;110.00;70.30;;;;;;;;;;5050689;28;20040;-79
2023/04/07 13:31:00;;;;;;;8.27;6.20;;;;;;;;;;5037048;28;20047;-81
2023/04/07 13:33:26;;;;;;;5.90;5.30;;;;;;;;;;5050248;28;20060;-81
2023/04/07 13:36:07;;;;;;;6.18;5.32;;;;;;;;;;5062299;28;20488;-85
2023/04/07 13:38:33;;;;;;;5.60;5.00;;;;;;;;;;5053198;28;20132;-85
2023/04/07 13:40:59;;;;;;;6.78;5.60;;;;;;;;;;5045545;28;20047;-81
2023/04/07 13:43:25;;;;;;;10.65;7.95;;;;;;;;;;5049486;28;20481;-81
2023/04/07 13:45:51;;;;;;;7.65;5.80;;;;;;;;;;5047961;28;20036;-80
2023/04/07 13:48:17;;;;;;;7.03;5.03;;;;;;;;;;5049761;28;20518;-83
2023/04/07 13:50:44;;;;;;;6.80;5.28;;;;;;;;;;5051801;28;20032;-83
2023/04/07 13:53:12;;;;;;;5.95;5.35;;;;;;;;;;5030433;28;20044;-82
2023/04/07 13:55:38;;;;;;;5.50;4.95;;;;;;;;;;5045406;28;20091;-82
2023/04/07 13:58:05;;;;;;;5.72;5.10;;;;;;;;;;5040445;28;20032;-83
2023/04/07 14:00:31;;;;;;;6.93;5.78;;;;;;;;;;5025806;28;20182;-82
2023/04/07 14:02:57;;;;;;;7.05;5.53;;;;;;;;;;5008988;28;20060;-83
2023/04/07 14:05:25;;;;;;;5.20;4.70;;;;;;;;;;5034494;28;20025;-82
2023/04/07 14:07:51;;;;;;;6.28;5.22;;;;;;;;;;5034200;28;20640;-76
2023/04/07 14:10:17;;;;;;;6.93;6.20;;;;;;;;;;5020200;28;20390;-77
2023/04/07 14:12:43;;;;;;;6.10;5.50;;;;;;;;;;5029746;28;20036;-78
2023/04/07 14:15:12;;;;;;;7.60;6.60;;;;;;;;;;5008873;28;20036;-77
2023/04/07 14:17:38;;;;;;;9.13;7.20;;;;;;;;;;5018221;28;20056;-75
2023/04/07 14:20:05;;;;;;;9.45;6.72;;;;;;;;;;5030696;28;20644;-76
2023/04/07 14:22:31;;;;;;;8.02;7.05;;;;;;;;;;5029032;28;20112;-78
2023/04/07 14:24:57;;;;;;;7.22;6.40;;;;;;;;;;5033955;28;20134;-76
2023/04/07 14:27:29;;;;;;;13.68;10.95;;;;;;;;;;5040481;28;20036;-88
2023/04/07 14:29:56;;;;;;;8.02;6.72;;;;;;;;;;5031044;28;20041;-83
2023/04/07 14:32:22;;;;;;;7.72;6.32;;;;;;;;;;5038943;28;20021;-82
2023/04/07 14:34:58;;;;;;;8.98;5.32;;;;;;;;;;5030584;28;20040;-82
2023/04/07 14:37:25;;;;;;;5.53;4.75;;;;;;;;;;5035632;28;20030;-81
2023/04/07 14:39:52;;;;;;;5.32;4.70;;;;;;;;;;5024107;28;20166;-82
2023/04/07 14:42:18;;;;;;;5.57;4.90;;;;;;;;;;5035933;28;20033;-82
2023/04/07 14:44:44;;;;;;;5.15;4.65;;;;;;;;;;5029814;28;20032;-80
2023/04/07 14:47:11;;;;;;;6.45;5.20;;;;;;;;;;5034347;28;20033;-79
2023/04/07 14:49:38;;;;;;;5.68;5.07;;;;;;;;;;5033568;28;20029;-80
2023/04/07 14:52:04;;;;;;;5.68;5.07;;;;;;;;;;5015535;28;20098;-79
2023/04/07 14:54:30;;;;;;;5.30;4.63;;;;;;;;;;5032558;28;20055;-79
2023/04/07 14:56:57;;;;;;;4.95;4.45;;;;;;;;;;5052431;28;20039;-80
2023/04/07 14:59:23;;;;;;;5.25;4.50;;;;;;;;;;5044008;28;20044;-79
2023/04/07 15:01:49;;;;;;;7.95;6.18;;;;;;;;;;5050727;28;20032;-80
2023/04/07 15:04:15;;;;;;;6.25;4.68;;;;;;;;;;5072984;28;20029;-81